Time;durP1;ratioP1;P1;durP2;ratioP2;P2;SDS_P1;SDS_P2;PMS_P1;PMS_P2;Temp;Humidity;BMP_temperature;BMP_pressure;BME280_temperature;BME280_humidity;BME280_pressure;Samples;Min_cycle;Max_cycle;Signal;HPM_P1;HPM_P2
2024/02/03 00:01:43;;;;;;;20.80;10.40;;;;;;;5.48;99.91;98701.68;137466;1274;22588;-78
2024/02/03 00:04:45;;;;;;;22.50;10.00;;;;;;;5.49;100.00;98691.16;137425;1274;22103;-78
2024/02/03 00:07:46;;;;;;;16.60;9.70;;;;;;;5.49;100.00;98690.84;137464;1274;22628;-78
2024/02/03 00:10:47;;;;;;;19.60;10.00;;;;;;;5.49;100.00;98689.80;137465;1274;22160;-78
2024/02/03 00:13:48;;;;;;;17.40;9.90;;;;;;;5.49;100.00;98691.86;137462;1274;22502;-78
2024/02/03 00:16:49;;;;;;;17.70;10.50;;;;;;;5.49;100.00;98682.20;137439;1274;22175;-78
2024/02/03 00:19:52;;;;;;;23.00;9.70;;;;;;;5.48;100.00;98693.04;137445;1262;22080;-78
2024/02/03 00:22:53;;;;;;;28.40;11.40;;;;;;;5.47;100.00;98702.34;137458;1274;22044;-78
2024/02/03 00:25:54;;;;;;;20.60;10.80;;;;;;;5.46;100.00;98709.91;137433;1274;22595;-78
2024/02/03 00:28:57;;;;;;;21.00;10.70;;;;;;;5.46;100.00;98712.13;137427;1274;22059;-78
2024/02/03 00:31:58;;;;;;;23.30;11.10;;;;;;;5.43;100.00;98713.12;137482;1274;22182;-78
2024/02/03 00:35:00;;;;;;;25.10;10.50;;;;;;;5.40;100.00;98711.80;137495;1274;22154;-78
2024/02/03 00:38:01;;;;;;;24.80;11.70;;;;;;;5.36;100.00;98700.30;137482;1274;22221;-77
2024/02/03 00:41:02;;;;;;;24.60;10.90;;;;;;;5.34;100.00;98700.23;137432;1274;22552;-79
2024/02/03 00:44:03;;;;;;;19.80;10.50;;;;;;;5.34;100.00;98686.25;137463;1270;22105;-79
2024/02/03 00:47:04;;;;;;;19.10;10.20;;;;;;;5.34;100.00;98676.77;137452;1274;22059;-78
2024/02/03 00:50:05;;;;;;;25.30;11.20;;;;;;;5.33;100.00;98671.55;137471;1274;22163;-78
2024/02/03 00:53:06;;;;;;;18.50;10.10;;;;;;;5.32;100.00;98680.31;137459;1274;22121;-78
2024/02/03 00:56:08;;;;;;;20.30;10.90;;;;;;;5.30;100.00;98675.09;137428;1274;22439;-78
2024/02/03 00:59:09;;;;;;;25.50;11.80;;;;;;;5.27;100.00;98675.34;137469;1274;22235;-78
2024/02/03 01:02:10;;;;;;;23.00;10.90;;;;;;;5.26;100.00;98672.90;137446;1269;22174;-78
2024/02/03 01:05:11;;;;;;;21.60;12.10;;;;;;;5.25;100.00;98667.69;137645;1271;22528;-78
2024/02/03 01:08:12;;;;;;;24.70;13.00;;;;;;;5.24;100.00;98661.09;137646;1274;22091;-77
2024/02/03 01:11:13;;;;;;;19.80;12.00;;;;;;;5.24;100.00;98668.16;137684;1274;22606;-78
2024/02/03 01:14:14;;;;;;;20.80;12.00;;;;;;;5.23;100.00;98668.33;137584;1274;22121;-78
2024/02/03 01:17:15;;;;;;;20.10;12.50;;;;;;;5.23;100.00;98657.98;137476;1274;22140;-78
2024/02/03 01:20:17;;;;;;;28.50;12.60;;;;;;;5.25;100.00;98648.35;137455;1274;22074;-78
2024/02/03 01:23:18;;;;;;;21.60;11.70;;;;;;;5.25;100.00;98648.20;137477;1274;22232;-78
2024/02/03 01:26:19;;;;;;;22.20;12.10;;;;;;;5.24;100.00;98652.48;137468;1274;22587;-78
2024/02/03 01:29:20;;;;;;;21.70;11.70;;;;;;;5.24;100.00;98651.45;137421;1274;22143;-77
2024/02/03 01:32:21;;;;;;;18.50;11.10;;;;;;;5.23;100.00;98653.83;137497;1274;22154;-78
2024/02/03 01:35:22;;;;;;;16.50;11.30;;;;;;;5.22;100.00;98648.79;137444;1274;22121;-78
2024/02/03 01:38:23;;;;;;;21.10;12.20;;;;;;;5.21;100.00;98637.73;137450;1274;22511;-78
2024/02/03 01:41:24;;;;;;;21.90;11.40;;;;;;;5.20;100.00;98637.35;137436;1274;22131;-79
2024/02/03 01:44:25;;;;;;;25.60;11.60;;;;;;;5.21;100.00;98631.83;137424;1274;22088;-78
2024/02/03 01:47:26;;;;;;;23.10;11.20;;;;;;;5.20;100.00;98631.66;137470;1274;22701;-78
2024/02/03 01:50:27;;;;;;;22.90;11.50;;;;;;;5.21;100.00;98631.30;137490;1274;22236;-79
2024/02/03 01:53:28;;;;;;;25.30;13.30;;;;;;;5.21;100.00;98639.44;137441;1274;22147;-78
2024/02/03 01:56:33;;;;;;;20.60;11.70;;;;;;;5.23;100.00;98635.02;137475;1274;22523;-77
2024/02/03 01:59:35;;;;;;;17.10;10.60;;;;;;;5.24;100.00;98635.91;137446;1274;22175;-77
2024/02/03 02:02:36;;;;;;;21.90;11.70;;;;;;;5.25;100.00;98642.00;137447;1274;22639;-78
2024/02/03 02:05:37;;;;;;;16.10;10.40;;;;;;;5.27;100.00;98633.77;137452;1274;22065;-78
2024/02/03 02:08:38;;;;;;;23.90;13.60;;;;;;;5.29;100.00;98633.14;137428;1274;22083;-78
2024/02/03 02:11:39;;;;;;;19.40;12.60;;;;;;;5.31;100.00;98635.08;137418;1274;22450;-77
2024/02/03 02:14:40;;;;;;;22.20;12.90;;;;;;;5.31;100.00;98630.77;137429;1274;22597;-78
2024/02/03 02:17:41;;;;;;;25.40;14.40;;;;;;;5.31;100.00;98630.07;137442;1274;22119;-78
2024/02/03 02:20:42;;;;;;;27.70;14.20;;;;;;;5.31;100.00;98623.70;137434;1274;22284;-78
2024/02/03 02:23:43;;;;;;;20.40;13.40;;;;;;;5.31;100.00;98630.08;137453;1274;22219;-78
2024/02/03 02:26:44;;;;;;;22.40;13.70;;;;;;;5.30;100.00;98625.91;137461;1274;22336;-78
2024/02/03 02:29:46;;;;;;;24.10;14.40;;;;;;;5.30;100.00;98619.34;137442;1274;22044;-78
2024/02/03 02:32:47;;;;;;;19.80;13.30;;;;;;;5.30;100.00;98618.31;137442;1274;22080;-78
2024/02/03 02:35:50;;;;;;;21.40;13.30;;;;;;;5.30;100.00;98618.48;137424;1269;22079;-78
2024/02/03 02:38:51;;;;;;;19.80;12.50;;;;;;;5.31;100.00;98628.70;137453;1273;22685;-78
2024/02/03 02:41:53;;;;;;;21.00;14.20;;;;;;;5.31;100.00;98635.44;137395;1274;22634;-78
2024/02/03 02:44:54;;;;;;;24.10;15.30;;;;;;;5.33;100.00;98623.06;137461;1274;22313;-78
2024/02/03 02:47:55;;;;;;;25.40;15.50;;;;;;;5.33;100.00;98623.42;137465;1274;22564;-78
2024/02/03 02:50:56;;;;;;;21.70;14.00;;;;;;;5.33;100.00;98619.27;137458;1274;22175;-78
2024/02/03 02:53:57;;;;;;;26.20;15.00;;;;;;;5.33;100.00;98611.68;137434;1267;22205;-79
2024/02/03 02:56:58;;;;;;;23.00;15.30;;;;;;;5.34;100.00;98609.80;137484;1274;22180;-79
2024/02/03 02:59:59;;;;;;;23.70;13.90;;;;;;;5.35;100.00;98615.02;137470;1274;22484;-79
2024/02/03 03:03:01;;;;;;;27.40;16.80;;;;;;;5.34;100.00;98612.24;137457;1274;22180;-79
2024/02/03 03:06:02;;;;;;;20.70;13.80;;;;;;;5.35;100.00;98623.30;137475;1274;22515;-79
2024/02/03 03:09:03;;;;;;;23.40;16.30;;;;;;;5.35;100.00;98621.74;137481;1274;22813;-79
2024/02/03 03:12:04;;;;;;;21.40;14.40;;;;;;;5.34;100.00;98623.45;137470;1273;22088;-79
2024/02/03 03:15:05;;;;;;;22.50;15.40;;;;;;;5.35;100.00;98623.64;137462;1274;22061;-79
2024/02/03 03:18:06;;;;;;;21.30;15.40;;;;;;;5.36;100.00;98620.04;137473;1274;22199;-79
2024/02/03 03:21:08;;;;;;;24.10;16.00;;;;;;;5.36;100.00;98624.89;137486;1274;22207;-79
2024/02/03 03:24:11;;;;;;;23.60;14.90;;;;;;;5.37;100.00;98626.64;137450;1274;22180;-79
2024/02/03 03:27:12;;;;;;;28.70;18.50;;;;;;;5.40;100.00;98624.30;137444;1274;22135;-79
2024/02/03 03:30:13;;;;;;;31.10;19.10;;;;;;;5.42;100.00;98623.67;137454;1274;22167;-79
2024/02/03 03:33:14;;;;;;;31.20;17.70;;;;;;;5.43;100.00;98632.69;137526;1274;22128;-79
2024/02/03 03:36:17;;;;;;;24.60;16.70;;;;;;;5.47;100.00;98630.36;137603;1274;22937;-79
2024/02/03 03:39:18;;;;;;;23.10;16.20;;;;;;;5.49;100.00;98633.02;137725;1274;22108;-79
2024/02/03 03:42:19;;;;;;;29.70;17.80;;;;;;;5.50;100.00;98644.27;137741;1274;22176;-78
2024/02/03 03:45:20;;;;;;;25.80;15.30;;;;;;;5.51;100.00;98646.02;137724;1274;22256;-79
2024/02/03 03:48:21;;;;;;;26.50;16.30;;;;;;;5.52;100.00;98650.70;137705;1274;22118;-79
2024/02/03 03:51:22;;;;;;;27.60;18.70;;;;;;;5.52;100.00;98653.65;137435;1274;22402;-79
2024/02/03 03:54:23;;;;;;;27.20;17.70;;;;;;;5.53;100.00;98652.46;137455;1274;22150;-79
2024/02/03 03:57:25;;;;;;;25.50;17.50;;;;;;;5.57;100.00;98655.85;137451;1274;22165;-79
2024/02/03 04:00:26;;;;;;;27.90;18.10;;;;;;;5.59;100.00;98654.00;137460;1274;22077;-79
2024/02/03 04:03:30;;;;;;;26.50;18.40;;;;;;;5.60;100.00;98652.83;137433;1274;22104;-79
2024/02/03 04:06:31;;;;;;;30.50;18.10;;;;;;;5.61;100.00;98651.15;137409;1274;22120;-78
2024/02/03 04:09:32;;;;;;;27.60;15.50;;;;;;;5.63;100.00;98647.91;137427;1274;22360;-79
2024/02/03 04:12:33;;;;;;;22.70;17.10;;;;;;;5.63;100.00;98648.61;137477;1274;22078;-79
2024/02/03 04:15:34;;;;;;;22.50;16.00;;;;;;;5.65;100.00;98645.55;137451;1274;22064;-79
2024/02/03 04:18:35;;;;;;;25.50;16.50;;;;;;;5.67;100.00;98634.56;137444;1274;22138;-78
2024/02/03 04:21:37;;;;;;;26.10;14.80;;;;;;;5.69;100.00;98640.48;137470;1274;22265;-78
2024/02/03 04:24:38;;;;;;;16.20;11.30;;;;;;;5.71;100.00;98644.87;137409;1274;22252;-78
2024/02/03 04:27:39;;;;;;;20.00;13.70;;;;;;;5.74;100.00;98643.39;137408;1274;22138;-78
2024/02/03 04:30:40;;;;;;;18.50;11.00;;;;;;;5.76;100.00;98635.15;137394;1269;22123;-78
2024/02/03 04:33:41;;;;;;;16.50;10.20;;;;;;;5.78;100.00;98628.83;137407;1274;22122;-78
2024/02/03 04:36:42;;;;;;;14.80;11.60;;;;;;;5.81;100.00;98625.44;137420;1274;22575;-78
2024/02/03 04:39:43;;;;;;;15.00;10.40;;;;;;;5.85;100.00;98628.46;137373;1274;22100;-76
2024/02/03 04:42:44;;;;;;;12.00;9.30;;;;;;;6.06;100.00;98633.59;137395;1274;22074;-78
2024/02/03 04:45:45;;;;;;;12.50;8.40;;;;;;;6.08;100.00;98627.61;137410;1274;22154;-78
2024/02/03 04:48:47;;;;;;;10.90;8.40;;;;;;;6.13;100.00;98612.00;137388;1274;22204;-77
2024/02/03 04:51:49;;;;;;;10.30;8.70;;;;;;;6.15;100.00;98618.13;137367;1274;22164;-78
2024/02/03 04:54:50;;;;;;;8.50;7.00;;;;;;;6.11;100.00;98633.20;137429;1274;22547;-78
2024/02/03 04:57:52;;;;;;;10.90;7.50;;;;;;;6.09;100.00;98642.33;137398;1269;22219;-78
2024/02/03 05:00:53;;;;;;;10.70;7.40;;;;;;;6.10;100.00;98641.14;137373;1274;22290;-77
2024/02/03 05:03:54;;;;;;;8.70;7.70;;;;;;;6.10;100.00;98642.01;137380;1274;22092;-77
2024/02/03 05:06:55;;;;;;;9.70;7.40;;;;;;;6.11;100.00;98639.94;137368;1274;22723;-77
2024/02/03 05:09:56;;;;;;;10.80;7.90;;;;;;;6.11;100.00;98638.04;137331;1274;22144;-77
2024/02/03 05:12:57;;;;;;;10.10;7.80;;;;;;;6.11;100.00;98635.11;137379;1274;22189;-77
2024/02/03 05:15:58;;;;;;;10.20;8.00;;;;;;;6.11;100.00;98632.16;137346;1274;22112;-77
2024/02/03 05:19:01;;;;;;;11.30;7.60;;;;;;;6.12;100.00;98631.17;137379;1274;22063;-78
2024/02/03 05:22:02;;;;;;;11.00;7.30;;;;;;;6.13;100.00;98628.60;137400;1274;22614;-77
2024/02/03 05:25:03;;;;;;;11.80;7.60;;;;;;;6.14;100.00;98629.14;137403;1274;22152;-78
2024/02/03 05:28:05;;;;;;;13.10;7.80;;;;;;;6.16;100.00;98637.99;137404;1274;22233;-78
2024/02/03 05:31:06;;;;;;;10.70;6.80;;;;;;;6.18;100.00;98629.77;137412;1274;22306;-77
2024/02/03 05:34:07;;;;;;;11.00;7.10;;;;;;;6.19;100.00;98631.01;137394;1274;22155;-77
2024/02/03 05:37:09;;;;;;;12.20;7.80;;;;;;;6.19;100.00;98629.98;137376;1274;22940;-77
2024/02/03 05:40:10;;;;;;;11.50;7.40;;;;;;;6.21;100.00;98628.46;137370;1273;22092;-78
2024/02/03 05:43:12;;;;;;;9.80;6.80;;;;;;;6.23;100.00;98630.95;137399;1274;22677;-78
2024/02/03 05:46:13;;;;;;;7.20;6.20;;;;;;;6.25;100.00;98624.08;137404;1274;22165;-77
2024/02/03 05:49:14;;;;;;;9.10;6.50;;;;;;;6.29;100.00;98628.84;137363;1274;22595;-77
2024/02/03 05:52:15;;;;;;;10.50;6.20;;;;;;;6.31;100.00;98633.74;137388;1274;22106;-77
2024/02/03 05:55:16;;;;;;;9.40;6.00;;;;;;;6.33;100.00;98629.65;137267;1274;145053;-77
2024/02/03 05:58:17;;;;;;;10.00;6.10;;;;;;;6.36;100.00;98629.70;137371;1274;22113;-79
2024/02/03 06:01:18;;;;;;;7.90;6.10;;;;;;;6.38;100.00;98636.15;137378;1274;22100;-77
2024/02/03 06:04:19;;;;;;;12.00;6.00;;;;;;;6.41;100.00;98642.27;137406;1274;22754;-77
2024/02/03 06:07:20;;;;;;;8.80;6.00;;;;;;;6.44;100.00;98652.90;137358;1274;22331;-77
2024/02/03 06:10:22;;;;;;;8.40;6.20;;;;;;;6.46;100.00;98657.61;137410;1274;22577;-78
2024/02/03 06:13:23;;;;;;;11.80;6.80;;;;;;;6.47;100.00;98662.81;137534;1274;22190;-77
2024/02/03 06:16:24;;;;;;;8.70;6.20;;;;;;;6.49;100.00;98669.60;137489;1274;22138;-77
2024/02/03 06:19:25;;;;;;;9.20;7.00;;;;;;;6.51;100.00;98663.95;137522;1274;22096;-77
2024/02/03 06:22:27;;;;;;;10.30;6.40;;;;;;;6.53;100.00;98659.70;137494;1274;22110;-78
2024/02/03 06:25:28;;;;;;;9.90;6.10;;;;;;;6.55;100.00;98669.59;137419;1274;22214;-78
2024/02/03 06:28:29;;;;;;;9.10;6.00;;;;;;;6.55;100.00;98667.70;137386;1273;22225;-78
2024/02/03 06:31:30;;;;;;;13.50;6.90;;;;;;;6.54;100.00;98664.71;137398;1274;22933;-77
2024/02/03 06:34:31;;;;;;;13.60;7.00;;;;;;;6.53;100.00;98672.30;137400;1274;22249;-78
2024/02/03 06:37:32;;;;;;;7.50;5.60;;;;;;;6.54;100.00;98665.93;137407;1267;22150;-78
2024/02/03 06:40:33;;;;;;;9.60;6.80;;;;;;;6.54;100.00;98667.15;137377;1274;22731;-78
2024/02/03 06:43:34;;;;;;;9.60;6.40;;;;;;;6.57;100.00;98660.81;137355;1274;22120;-78
2024/02/03 06:46:35;;;;;;;10.00;6.70;;;;;;;6.58;100.00;98650.14;137372;1273;22091;-79
2024/02/03 06:49:36;;;;;;;9.50;6.50;;;;;;;6.60;100.00;98651.91;137396;1274;23039;-78
2024/02/03 06:52:38;;;;;;;11.10;7.10;;;;;;;6.61;100.00;98648.30;137454;1274;22261;-77
2024/02/03 06:55:39;;;;;;;11.00;8.40;;;;;;;6.61;100.00;98646.41;137411;1274;22510;-78
2024/02/03 06:58:40;;;;;;;11.50;8.10;;;;;;;6.63;100.00;98654.06;137440;1274;22071;-78
2024/02/03 07:01:41;;;;;;;10.90;7.70;;;;;;;6.65;100.00;98663.78;137417;1274;22264;-78
2024/02/03 07:04:42;;;;;;;16.50;8.70;;;;;;;6.65;100.00;98664.99;137412;1273;22242;-77
2024/02/03 07:07:43;;;;;;;11.70;7.40;;;;;;;6.64;100.00;98662.55;137441;1274;22822;-78
2024/02/03 07:10:44;;;;;;;9.60;8.00;;;;;;;6.63;100.00;98663.05;137403;1274;22440;-78
2024/02/03 07:13:45;;;;;;;8.90;7.40;;;;;;;6.63;100.00;98670.32;137415;1273;22118;-78
2024/02/03 07:16:46;;;;;;;17.50;8.50;;;;;;;6.65;100.00;98669.15;137426;1274;22442;-78
2024/02/03 07:19:48;;;;;;;15.30;9.70;;;;;;;6.67;100.00;98670.59;137437;1273;22115;-78
2024/02/03 07:22:49;;;;;;;11.20;8.20;;;;;;;6.69;100.00;98664.39;137438;1273;22121;-78
2024/02/03 07:25:50;;;;;;;12.20;9.50;;;;;;;6.71;100.00;98665.49;137410;1274;22120;-78
2024/02/03 07:28:51;;;;;;;13.00;8.70;;;;;;;6.72;100.00;98671.21;137396;1273;22116;-77
2024/02/03 07:31:54;;;;;;;10.60;9.20;;;;;;;6.74;100.00;98672.48;137402;1274;22111;-78
2024/02/03 07:34:55;;;;;;;12.50;8.80;;;;;;;6.74;100.00;98671.63;137391;1274;22230;-77
2024/02/03 07:37:56;;;;;;;10.20;8.10;;;;;;;6.77;100.00;98668.75;137372;1274;22131;-77
2024/02/03 07:40:57;;;;;;;210.20;126.60;;;;;;;6.84;100.00;98671.17;137345;1274;22162;-78
2024/02/03 07:43:59;;;;;;;39.80;15.00;;;;;;;7.63;100.00;98679.17;137393;1274;22107;-79
2024/02/03 07:47:00;;;;;;;35.90;11.30;;;;;;;8.71;100.00;98678.68;137409;1259;22207;-78
2024/02/03 07:50:01;;;;;;;10.00;7.30;;;;;;;9.23;100.00;98676.02;137343;1274;22638;-77
2024/02/03 07:53:02;;;;;;;10.80;8.80;;;;;;;9.07;100.00;98682.39;137348;1274;22165;-78
2024/02/03 07:56:03;;;;;;;8.90;7.30;;;;;;;8.37;100.00;98687.94;137402;1274;22131;-78
2024/02/03 07:59:04;;;;;;;8.20;7.20;;;;;;;7.94;100.00;98687.63;137400;1274;22126;-78
2024/02/03 08:02:05;;;;;;;13.20;7.80;;;;;;;7.68;100.00;98686.58;137392;1274;22594;-78
2024/02/03 08:05:06;;;;;;;18.60;12.20;;;;;;;7.56;100.00;98687.70;137422;1274;22119;-78
2024/02/03 08:08:07;;;;;;;16.90;11.10;;;;;;;7.50;100.00;98672.50;137404;1274;22130;-78
2024/02/03 08:11:09;;;;;;;16.40;11.20;;;;;;;7.50;100.00;98667.30;137397;1274;22602;-78
2024/02/03 08:14:10;;;;;;;11.10;8.30;;;;;;;7.50;100.00;98672.15;137435;1274;22072;-78
2024/02/03 08:17:11;;;;;;;8.90;6.60;;;;;;;7.48;100.00;98674.03;137398;1274;22112;-78
2024/02/03 08:20:12;;;;;;;9.90;7.00;;;;;;;7.46;100.00;98675.35;137413;1274;22180;-78
2024/02/03 08:23:13;;;;;;;7.30;6.40;;;;;;;7.43;100.00;98669.25;137387;1274;22089;-78
2024/02/03 08:26:14;;;;;;;14.00;10.20;;;;;;;7.42;100.00;98665.40;137399;1274;22176;-78
2024/02/03 08:29:15;;;;;;;10.30;8.60;;;;;;;7.39;100.00;98663.26;137397;1274;22135;-78
2024/02/03 08:32:16;;;;;;;12.90;9.00;;;;;;;7.34;100.00;98659.19;137385;1274;22565;-78
2024/02/03 08:35:18;;;;;;;11.40;9.10;;;;;;;7.32;100.00;98660.35;137416;1259;22145;-78
2024/02/03 08:38:19;;;;;;;10.80;8.40;;;;;;;7.33;100.00;98660.20;137433;1274;22606;-77
2024/02/03 08:41:20;;;;;;;15.30;10.50;;;;;;;7.32;100.00;98655.52;137413;1274;22136;-78
2024/02/03 08:44:21;;;;;;;12.20;10.50;;;;;;;7.32;100.00;98661.05;137430;1274;22495;-78
2024/02/03 08:47:22;;;;;;;12.70;10.50;;;;;;;7.32;100.00;98659.13;137429;1274;22101;-77
2024/02/03 08:50:23;;;;;;;15.30;10.00;;;;;;;7.34;100.00;98660.75;137394;1274;22131;-78
2024/02/03 08:53:24;;;;;;;12.40;10.10;;;;;;;7.38;100.00;98664.47;137372;1267;22131;-78
2024/02/03 08:56:26;;;;;;;14.00;11.30;;;;;;;7.41;100.00;98664.35;137417;1274;22400;-78
2024/02/03 08:59:27;;;;;;;20.30;13.70;;;;;;;7.43;100.00;98670.45;137349;1274;22335;-77
2024/02/03 09:02:30;;;;;;;22.50;14.60;;;;;;;7.45;100.00;98669.96;137412;1274;22105;-77
2024/02/03 09:05:34;;;;;;;19.70;12.60;;;;;;;7.46;100.00;98671.20;137406;1274;22340;-77
2024/02/03 09:08:36;;;;;;;25.40;15.90;;;;;;;7.45;100.00;98672.39;137418;1274;22176;-77
2024/02/03 09:11:37;;;;;;;26.80;14.80;;;;;;;7.44;100.00;98679.13;137413;1274;22110;-77
2024/02/03 09:14:38;;;;;;;13.00;10.10;;;;;;;7.42;100.00;98678.73;137398;1274;22269;-77
2024/02/03 09:17:39;;;;;;;18.40;11.60;;;;;;;7.42;100.00;98681.85;137378;1274;22491;-77
2024/02/03 09:20:40;;;;;;;16.10;11.70;;;;;;;7.44;100.00;98674.10;137391;1274;22668;-78
2024/02/03 09:23:41;;;;;;;15.40;12.30;;;;;;;7.46;100.00;98673.28;137455;1274;22147;-77
2024/02/03 09:26:43;;;;;;;18.10;13.30;;;;;;;7.50;100.00;98679.95;137462;1274;22045;-78
2024/02/03 09:29:44;;;;;;;24.50;14.40;;;;;;;7.54;100.00;98683.31;137489;1274;22755;-78
2024/02/03 09:32:45;;;;;;;30.30;18.00;;;;;;;7.64;100.00;98690.64;137453;1274;22339;-77
2024/02/03 09:35:46;;;;;;;27.20;17.10;;;;;;;7.84;100.00;98682.23;137426;1274;22117;-78
2024/02/03 09:38:47;;;;;;;23.90;14.10;;;;;;;7.95;100.00;98684.04;137451;1274;22092;-77
2024/02/03 09:41:49;;;;;;;12.10;9.40;;;;;;;8.05;100.00;98691.67;137407;1274;22803;-78
2024/02/03 09:44:50;;;;;;;39.90;12.10;;;;;;;8.20;100.00;98688.48;137418;1274;22767;-76
2024/02/03 09:47:51;;;;;;;22.20;8.90;;;;;;;9.57;100.00;98686.39;137410;1274;22106;-76
2024/02/03 09:50:52;;;;;;;14.10;8.90;;;;;;;10.85;100.00;98679.85;137418;1274;22119;-76
2024/02/03 09:53:54;;;;;;;16.20;8.40;;;;;;;11.65;100.00;98671.88;137441;1274;22871;-77
2024/02/03 09:56:55;;;;;;;9.60;6.50;;;;;;;12.52;100.00;98671.33;137424;1274;22109;-77
2024/02/03 09:59:58;;;;;;;9.30;6.80;;;;;;;12.48;100.00;98670.10;137451;1274;22139;-78
2024/02/03 10:02:59;;;;;;;8.50;5.70;;;;;;;11.56;100.00;98676.52;137635;1274;22070;-78
2024/02/03 10:06:00;;;;;;;10.00;6.50;;;;;;;10.52;100.00;98671.89;137613;1274;22265;-77
2024/02/03 10:09:01;;;;;;;8.20;6.00;;;;;;;9.85;100.00;98674.27;137603;1274;22167;-77
2024/02/03 10:12:02;;;;;;;9.40;7.20;;;;;;;9.36;100.00;98678.47;137520;1274;22741;-78
2024/02/03 10:15:05;;;;;;;10.00;7.50;;;;;;;9.10;100.00;98677.23;137462;1274;22211;-78
2024/02/03 10:18:08;;;;;;;7.00;6.00;;;;;;;8.94;100.00;98674.56;137438;1274;22658;-77
2024/02/03 10:21:09;;;;;;;8.10;6.00;;;;;;;8.86;100.00;98681.55;137462;1274;22112;-78
2024/02/03 10:24:10;;;;;;;6.20;5.20;;;;;;;8.77;100.00;98686.27;137416;1274;22594;-78
2024/02/03 10:27:11;;;;;;;7.10;5.80;;;;;;;8.65;100.00;98679.09;137428;1274;22268;-78
2024/02/03 10:30:12;;;;;;;8.20;6.20;;;;;;;8.59;100.00;98677.77;137466;1274;22127;-78
2024/02/03 10:33:13;;;;;;;8.30;6.40;;;;;;;8.65;100.00;98673.90;137432;1274;22136;-79
2024/02/03 10:36:14;;;;;;;8.70;5.70;;;;;;;8.70;100.00;98667.92;137378;1274;22113;-78
2024/02/03 10:39:15;;;;;;;6.60;5.50;;;;;;;8.74;100.00;98669.38;137421;1274;22120;-78
2024/02/03 10:42:16;;;;;;;9.60;6.70;;;;;;;8.78;100.00;98666.85;137405;1274;22307;-78
2024/02/03 10:45:18;;;;;;;11.90;8.20;;;;;;;8.82;100.00;98665.02;137468;1274;22189;-78
2024/02/03 10:48:19;;;;;;;10.40;7.20;;;;;;;8.87;100.00;98656.59;137391;1274;22110;-78
2024/02/03 10:51:20;;;;;;;9.20;7.30;;;;;;;8.98;100.00;98647.38;137432;1274;22232;-78
2024/02/03 10:54:21;;;;;;;8.80;7.30;;;;;;;9.08;100.00;98650.12;137467;1274;22079;-78
2024/02/03 10:57:23;;;;;;;10.10;6.30;;;;;;;9.10;100.00;98645.29;137410;1274;22106;-78
2024/02/03 11:00:24;;;;;;;8.00;5.80;;;;;;;9.12;100.00;98650.35;137389;1274;22229;-78
2024/02/03 11:03:25;;;;;;;7.80;7.00;;;;;;;9.12;100.00;98646.70;137448;1274;22180;-78
2024/02/03 11:06:27;;;;;;;9.10;6.50;;;;;;;9.09;100.00;98635.04;137421;1274;22107;-78
2024/02/03 11:09:29;;;;;;;9.30;6.70;;;;;;;9.11;100.00;98636.45;137393;1274;22746;-78
2024/02/03 11:12:30;;;;;;;10.10;7.50;;;;;;;9.14;100.00;98633.71;137396;1274;22320;-78
2024/02/03 11:15:31;;;;;;;8.70;6.90;;;;;;;9.13;100.00;98638.39;137373;1274;22154;-78
2024/02/03 11:18:32;;;;;;;11.40;7.40;;;;;;;9.13;100.00;98639.78;137368;1274;22163;-78
2024/02/03 11:21:33;;;;;;;11.30;6.40;;;;;;;9.19;100.00;98635.52;137339;1274;22103;-78
2024/02/03 11:24:35;;;;;;;9.90;7.20;;;;;;;9.23;100.00;98637.15;137355;1274;22111;-77
2024/02/03 11:27:36;;;;;;;9.30;6.50;;;;;;;9.26;100.00;98633.36;137296;1274;22117;-77
2024/02/03 11:30:37;;;;;;;10.30;6.90;;;;;;;9.23;100.00;98638.70;137335;1274;22088;-78
2024/02/03 11:33:38;;;;;;;10.30;7.00;;;;;;;9.17;100.00;98636.36;137357;1274;22141;-77
2024/02/03 11:36:40;;;;;;;7.90;6.30;;;;;;;9.17;100.00;98642.10;137323;1273;22116;-77
2024/02/03 11:39:41;;;;;;;7.30;6.20;;;;;;;9.23;100.00;98638.36;137318;1274;22100;-77
2024/02/03 11:42:42;;;;;;;7.10;5.90;;;;;;;9.23;100.00;98639.58;137383;1274;22119;-77
2024/02/03 11:45:44;;;;;;;9.40;6.20;;;;;;;9.18;100.00;98647.84;137377;1274;22139;-76
2024/02/03 11:48:45;;;;;;;7.60;6.10;;;;;;;9.14;100.00;98649.17;137397;1273;22119;-77
2024/02/03 11:51:46;;;;;;;10.80;6.20;;;;;;;9.10;100.00;98644.59;137410;1274;22116;-78
2024/02/03 11:54:48;;;;;;;9.90;6.80;;;;;;;9.09;100.00;98647.02;137417;1273;22186;-77
2024/02/03 11:57:49;;;;;;;11.50;7.60;;;;;;;9.12;100.00;98653.65;137411;1273;22087;-77
2024/02/03 12:00:50;;;;;;;30.70;13.80;;;;;;;9.19;100.00;98645.08;137378;1274;22074;-77
2024/02/03 12:03:51;;;;;;;24.80;12.20;;;;;;;9.39;100.00;98647.78;137383;1274;22063;-77
2024/02/03 12:06:52;;;;;;;22.00;11.20;;;;;;;9.51;100.00;98647.06;137393;1274;22183;-77
2024/02/03 12:09:53;;;;;;;12.20;5.60;;;;;;;9.55;100.00;98652.18;137414;1274;22093;-77
2024/02/03 12:12:54;;;;;;;10.00;5.70;;;;;;;9.54;100.00;98647.28;137422;1270;22145;-77
2024/02/03 12:15:56;;;;;;;6.50;4.40;;;;;;;9.54;100.00;98648.86;137447;1274;22168;-77
2024/02/03 12:18:57;;;;;;;6.10;4.10;;;;;;;9.57;100.00;98636.94;137437;1274;22179;-77
2024/02/03 12:21:58;;;;;;;6.90;4.30;;;;;;;9.64;100.00;98637.88;137429;1274;22191;-77
2024/02/03 12:24:59;;;;;;;7.30;4.40;;;;;;;9.70;100.00;98638.64;137451;1274;22143;-77
2024/02/03 12:28:00;;;;;;;5.20;3.50;;;;;;;9.76;100.00;98642.20;137430;1274;22627;-76
2024/02/03 12:31:01;;;;;;;6.40;4.30;;;;;;;9.84;100.00;98633.25;137399;1269;22147;-77
2024/02/03 12:34:02;;;;;;;8.90;5.40;;;;;;;9.92;100.00;98626.22;137414;1274;22114;-75
2024/02/03 12:37:04;;;;;;;10.90;6.30;;;;;;;9.95;100.00;98632.33;137429;1274;22143;-76
2024/02/03 12:40:05;;;;;;;13.10;7.10;;;;;;;9.91;100.00;98630.02;137392;1274;22556;-76
2024/02/03 12:43:06;;;;;;;10.80;6.00;;;;;;;9.83;100.00;98636.89;137396;1274;22218;-76
2024/02/03 12:46:07;;;;;;;7.90;5.20;;;;;;;9.81;100.00;98628.19;137401;1274;22633;-76
2024/02/03 12:49:08;;;;;;;11.90;6.20;;;;;;;9.76;100.00;98623.61;137573;1274;22160;-76
2024/02/03 12:52:09;;;;;;;7.70;6.00;;;;;;;9.78;100.00;98625.02;137569;1274;22110;-76
2024/02/03 12:55:10;;;;;;;9.60;6.30;;;;;;;9.86;100.00;98627.88;137573;1274;22477;-75
2024/02/03 12:58:11;;;;;;;6.20;4.40;;;;;;;9.96;100.00;98629.73;137511;1274;22349;-76
2024/02/03 13:01:13;;;;;;;6.40;4.90;;;;;;;10.06;100.00;98635.92;137484;1269;22127;-75
2024/02/03 13:04:14;;;;;;;5.10;3.50;;;;;;;10.05;100.00;98642.88;137409;1274;22708;-76
2024/02/03 13:07:15;;;;;;;6.70;4.00;;;;;;;9.96;100.00;98640.68;137452;1274;22627;-75
2024/02/03 13:10:16;;;;;;;5.90;3.90;;;;;;;9.91;100.00;98640.10;137433;1274;22135;-76
2024/02/03 13:13:17;;;;;;;5.80;3.80;;;;;;;9.92;100.00;98637.86;137504;1274;22114;-78
2024/02/03 13:16:18;;;;;;;4.80;3.60;;;;;;;9.90;100.00;98633.32;137435;1274;22117;-78
2024/02/03 13:19:20;;;;;;;4.20;3.60;;;;;;;9.91;100.00;98637.33;137430;1274;22189;-78
2024/02/03 13:22:21;;;;;;;5.20;3.60;;;;;;;9.94;100.00;98639.80;137466;1274;22089;-78
2024/02/03 13:25:22;;;;;;;6.80;4.50;;;;;;;9.97;100.00;98648.00;137470;1271;22596;-78
2024/02/03 13:28:23;;;;;;;9.50;5.80;;;;;;;9.97;100.00;98644.34;137454;1274;22133;-77
2024/02/03 13:31:26;;;;;;;6.70;4.80;;;;;;;9.91;100.00;98643.06;137434;1274;22597;-78
2024/02/03 13:34:27;;;;;;;7.10;4.90;;;;;;;9.89;100.00;98643.23;137485;1274;22133;-77
2024/02/03 13:37:28;;;;;;;5.30;4.10;;;;;;;9.90;100.00;98650.35;137425;1274;22586;-78
2024/02/03 13:40:29;;;;;;;5.20;4.00;;;;;;;9.85;100.00;98653.08;137433;1274;22120;-78
2024/02/03 13:43:31;;;;;;;8.00;5.30;;;;;;;9.81;100.00;98653.04;137450;1266;22853;-78
2024/02/03 13:46:32;;;;;;;8.10;3.90;;;;;;;9.77;100.00;98671.05;137398;1274;22603;-78
2024/02/03 13:49:34;;;;;;;7.00;3.70;;;;;;;9.68;100.00;98671.81;137477;1274;22737;-77
2024/02/03 13:52:36;;;;;;;5.90;4.10;;;;;;;9.57;100.00;98671.83;137457;1274;22163;-78